Who's Online

We have 5 guests online

Aviation WX

[source: ADDS]
METAR
KIAD 220852Z 33009KT 10SM SCT023 OVC070 11/09 A2989 RMK AO2 RAB12E41 SLP119 P0000 60000 T01060094 55003 =
TAF
KIAD 220857Z 2209/2312 35011G20KT 5SM -RA OVC030 FM221200 35016G24KT P6SM SCT008 OVC015 FM222000 34018G27KT P6SM BKN030 FM230000 33019KT P6SM BKN040 FM230800 32016G28KT P6SM BKN030 =
SR / SS: 01:07 / 12:04 UTC (Washington-Dulles 2014-10-22)

JoomlaWatch Agent

Home Products and Services

This section describes Multilink Systems products and services

 

 

Under construction Please Standby